Аэропорт: Магнитогорск. Магнитогорск

ICAO: USCM

METAR:
2019/05/26 14:00
USCM 261400Z 20005MPS 9999 NSC 20/M01 Q1019 R18/090065 NOSIG RMK QFE726
METAR:
Информация по данной станции не доступна